Terminal Aerodrome Forecast
Issued by NWS Wilmington, NC

Current Version | Previous Version | Text Only | Print | Product List | Glossary On
Versions: 1 2 3 4 5 6 7 8 9 10 11 12 13 14 15 16 17 18 19
635
FTUS42 KILM 291120
TAFILM
TAF
KILM 291120Z 2912/3012 02006KT P6SM SCT060
      TEMPO 2912/2915 BKN060
     FM291500 05006KT P6SM SCT040
      TEMPO 2916/2920 BKN040=

USA.gov is the U.S. government's official web portal to all federal, state and local government web resources and services.